TimeCST,TemperatureF,Dew PointF,Humidity,Sea Level PressureIn,VisibilityMPH,Wind Direction,Wind SpeedMPH,Gust SpeedMPH,PrecipitationIn,Events,Conditions,WindDirDegrees,DateUTC
12:54 AM,10.9,1.0,64,30.42,10.0,NW,19.6,-,N/A,,Scattered Clouds,320,2014-02-26 06:54:00
1:54 AM,10.0,-0.0,64,30.40,10.0,NNW,20.7,-,N/A,,Partly Cloudy,330,2014-02-26 07:54:00
2:54 AM,6.1,-4.0,63,30.41,10.0,NNW,16.1,-,N/A,,Clear,330,2014-02-26 08:54:00
3:54 AM,3.9,-8.0,58,30.41,10.0,NNW,18.4,-,N/A,,Clear,330,2014-02-26 09:54:00
4:54 AM,3.0,-8.0,60,30.40,10.0,NW,15.0,-,N/A,,Clear,320,2014-02-26 10:54:00
5:54 AM,1.9,-9.9,58,30.39,10.0,NNW,13.8,-,N/A,,Clear,330,2014-02-26 11:54:00
6:54 AM,1.0,-11.0,57,30.37,10.0,NNW,9.2,-,N/A,,Clear,330,2014-02-26 12:54:00
7:54 AM,3.0,-9.0,57,30.37,10.0,NNW,11.5,-,N/A,,Clear,330,2014-02-26 13:54:00
8:54 AM,5.0,-7.1,58,30.37,10.0,WNW,11.5,-,N/A,,Clear,300,2014-02-26 14:54:00
9:54 AM,9.0,-6.0,51,30.34,10.0,WNW,8.1,-,N/A,,Clear,290,2014-02-26 15:54:00
10:54 AM,10.9,-7.1,44,30.30,10.0,West,9.2,-,N/A,,Clear,270,2014-02-26 16:54:00
11:54 AM,15.1,-4.0,43,30.27,10.0,West,15.0,21.9,N/A,,Clear,280,2014-02-26 17:54:00
12:54 PM,18.0,-4.0,38,30.21,10.0,West,12.7,-,N/A,,Clear,260,2014-02-26 18:54:00
1:54 PM,21.0,-2.9,35,30.14,10.0,WSW,16.1,-,N/A,,Clear,240,2014-02-26 19:54:00
2:54 PM,23.0,-2.0,34,30.10,10.0,West,17.3,-,N/A,,Clear,260,2014-02-26 20:54:00
3:54 PM,24.1,-2.0,32,30.06,10.0,WSW,16.1,-,N/A,,Clear,250,2014-02-26 21:54:00
4:54 PM,23.0,-2.0,34,30.01,10.0,SW,19.6,-,N/A,,Clear,230,2014-02-26 22:54:00
5:54 PM,21.9,-0.0,38,29.99,10.0,WSW,17.3,24.2,N/A,,Clear,250,2014-02-26 23:54:00
6:54 PM,21.0,1.9,44,29.97,10.0,WSW,12.7,-,N/A,,Clear,240,2014-02-27 00:54:00
7:54 PM,21.9,3.0,44,29.95,10.0,WSW,16.1,-,N/A,,Clear,240,2014-02-27 01:54:00
8:54 PM,21.9,3.9,46,29.94,10.0,WSW,16.1,-,N/A,,Clear,240,2014-02-27 02:54:00
9:54 PM,21.9,5.0,48,29.92,10.0,WSW,16.1,-,N/A,,Clear,240,2014-02-27 03:54:00
10:54 PM,23.0,7.0,50,29.90,10.0,WSW,18.4,23.0,N/A,,Clear,250,2014-02-27 04:54:00
11:54 PM,23.0,9.0,55,29.90,10.0,West,13.8,-,N/A,,Clear,260,2014-02-27 05:54:00